Time;durP1;ratioP1;P1;durP2;ratioP2;P2;SDS_P1;SDS_P2;PMS_P1;PMS_P2;Temp;Humidity;BMP_temperature;BMP_pressure;BME280_temperature;BME280_humidity;BME280_pressure;Samples;Min_cycle;Max_cycle;Signal;HPM_P1;HPM_P2
2020/12/07 00:00:21;;;;;;;45.80;32.97;;;;;;;;;;5051784;28;20370;-72
2020/12/07 00:02:47;;;;;;;39.90;30.25;;;;;;;;;;5051320;28;20497;-71
2020/12/07 00:05:12;;;;;;;39.75;29.58;;;;;;;;;;5051675;28;20064;-70
2020/12/07 00:07:37;;;;;;;43.45;31.20;;;;;;;;;;5051183;28;20040;-70
2020/12/07 00:10:03;;;;;;;39.10;28.85;;;;;;;;;;5049880;28;20100;-70
2020/12/07 00:12:29;;;;;;;36.50;28.45;;;;;;;;;;5051061;28;20102;-71
2020/12/07 00:14:55;;;;;;;39.30;28.98;;;;;;;;;;5050066;28;20071;-72
2020/12/07 00:17:24;;;;;;;34.03;27.17;;;;;;;;;;5051270;28;20027;-71
2020/12/07 00:19:49;;;;;;;38.85;29.92;;;;;;;;;;5051625;28;20025;-71
2020/12/07 00:22:21;;;;;;;37.47;27.02;;;;;;;;;;5054854;28;20531;-70
2020/12/07 00:24:46;;;;;;;31.90;26.38;;;;;;;;;;5054913;28;20029;-67
2020/12/07 00:27:12;;;;;;;34.17;27.27;;;;;;;;;;5054758;28;20158;-72
2020/12/07 00:29:37;;;;;;;33.58;25.92;;;;;;;;;;5054758;28;20025;-69
2020/12/07 00:32:02;;;;;;;31.35;24.90;;;;;;;;;;5054643;28;20484;-67
2020/12/07 00:34:27;;;;;;;34.67;26.40;;;;;;;;;;5055008;28;20028;-70
2020/12/07 00:36:52;;;;;;;32.40;26.80;;;;;;;;;;5054418;28;20569;-69
2020/12/07 00:39:18;;;;;;;39.13;28.63;;;;;;;;;;5054372;28;20252;-67
2020/12/07 00:41:43;;;;;;;31.42;25.90;;;;;;;;;;5053988;28;20027;-67
2020/12/07 00:44:08;;;;;;;33.08;25.95;;;;;;;;;;5054288;28;20382;-68
2020/12/07 00:46:34;;;;;;;31.90;26.27;;;;;;;;;;5054350;28;20055;-69
2020/12/07 00:48:59;;;;;;;34.67;26.55;;;;;;;;;;5054702;28;20021;-68
2020/12/07 00:51:24;;;;;;;33.03;25.33;;;;;;;;;;5053992;28;20024;-67
2020/12/07 00:53:49;;;;;;;33.33;26.98;;;;;;;;;;5054505;28;20347;-72
2020/12/07 00:56:14;;;;;;;34.23;26.47;;;;;;;;;;5054024;28;20017;-72
2020/12/07 00:58:40;;;;;;;31.23;26.60;;;;;;;;;;5054421;28;20767;-72
2020/12/07 01:01:05;;;;;;;30.20;24.67;;;;;;;;;;5054757;28;20248;-72
2020/12/07 01:03:30;;;;;;;30.55;25.75;;;;;;;;;;5054503;28;20032;-70
2020/12/07 01:05:55;;;;;;;34.30;26.80;;;;;;;;;;5054569;28;20040;-72
2020/12/07 01:08:21;;;;;;;34.97;26.73;;;;;;;;;;5054425;28;20271;-71
2020/12/07 01:10:53;;;;;;;34.05;27.67;;;;;;;;;;5053995;28;20279;-68
2020/12/07 01:13:18;;;;;;;31.13;24.33;;;;;;;;;;5052532;28;20013;-68
2020/12/07 01:15:43;;;;;;;28.05;24.90;;;;;;;;;;5053162;28;20032;-71
2020/12/07 01:18:08;;;;;;;31.73;26.00;;;;;;;;;;5053773;28;20131;-70
2020/12/07 01:20:33;;;;;;;29.13;24.23;;;;;;;;;;5053893;28;20102;-69
2020/12/07 01:22:59;;;;;;;30.73;23.40;;;;;;;;;;5054098;28;20154;-70
2020/12/07 01:25:24;;;;;;;31.13;24.70;;;;;;;;;;5054334;28;20247;-71
2020/12/07 01:27:49;;;;;;;28.63;23.67;;;;;;;;;;5054314;28;20703;-71
2020/12/07 01:30:14;;;;;;;29.98;24.88;;;;;;;;;;5054664;28;20354;-68
2020/12/07 01:32:40;;;;;;;29.63;23.73;;;;;;;;;;5053290;28;20040;-68
2020/12/07 01:35:05;;;;;;;27.02;22.25;;;;;;;;;;5053888;28;20373;-71
2020/12/07 01:37:30;;;;;;;30.15;23.58;;;;;;;;;;5053916;28;20029;-72
2020/12/07 01:39:55;;;;;;;27.48;22.48;;;;;;;;;;5054171;28;20017;-69
2020/12/07 01:42:20;;;;;;;29.65;22.92;;;;;;;;;;5053911;28;20136;-69
2020/12/07 01:44:46;;;;;;;32.30;24.55;;;;;;;;;;5052548;28;20513;-70
2020/12/07 01:47:22;;;;;;;25.85;22.75;;;;;;;;;;5052471;28;20037;-70
2020/12/07 01:49:49;;;;;;;28.80;22.88;;;;;;;;;;5053859;28;20017;-72
2020/12/07 01:52:14;;;;;;;27.42;23.15;;;;;;;;;;5053457;28;20029;-69
2020/12/07 01:54:39;;;;;;;27.52;23.77;;;;;;;;;;5053578;28;20023;-70
2020/12/07 01:57:04;;;;;;;26.60;23.52;;;;;;;;;;5053507;28;20511;-72
2020/12/07 01:59:30;;;;;;;25.25;21.75;;;;;;;;;;5053682;28;20052;-71
2020/12/07 02:01:55;;;;;;;24.30;21.10;;;;;;;;;;5053172;28;20398;-72
2020/12/07 02:04:20;;;;;;;23.00;20.40;;;;;;;;;;5053516;28;20024;-68
2020/12/07 02:06:45;;;;;;;24.55;20.75;;;;;;;;;;5053284;28;20040;-73
2020/12/07 02:09:10;;;;;;;28.10;22.00;;;;;;;;;;5053132;28;20033;-70
2020/12/07 02:11:36;;;;;;;26.33;23.15;;;;;;;;;;5053027;28;20267;-70
2020/12/07 02:14:01;;;;;;;26.83;22.40;;;;;;;;;;5053425;28;20028;-72
2020/12/07 02:16:26;;;;;;;26.75;22.08;;;;;;;;;;5052817;28;20259;-70
2020/12/07 02:18:55;;;;;;;26.67;22.65;;;;;;;;;;5053016;28;20025;-70
2020/12/07 02:21:20;;;;;;;28.85;23.38;;;;;;;;;;5052780;28;20032;-67
2020/12/07 02:23:45;;;;;;;26.48;22.05;;;;;;;;;;5053023;28;20370;-71
2020/12/07 02:26:11;;;;;;;25.63;21.20;;;;;;;;;;5052734;28;20135;-72
2020/12/07 02:28:36;;;;;;;26.00;19.67;;;;;;;;;;5052806;28;20247;-69
2020/12/07 02:31:01;;;;;;;23.02;19.90;;;;;;;;;;5052925;28;20375;-72
2020/12/07 02:33:26;;;;;;;25.00;19.97;;;;;;;;;;5052917;28;20070;-68
2020/12/07 02:35:51;;;;;;;25.07;21.27;;;;;;;;;;5052521;28;20251;-66
2020/12/07 02:38:16;;;;;;;29.73;22.50;;;;;;;;;;5052689;28;20303;-69
2020/12/07 02:40:42;;;;;;;25.92;21.73;;;;;;;;;;5052114;28;20017;-68
2020/12/07 02:43:07;;;;;;;27.35;21.85;;;;;;;;;;5051648;28;20017;-68
2020/12/07 02:45:32;;;;;;;27.88;23.02;;;;;;;;;;5052292;28;20450;-69
2020/12/07 02:47:57;;;;;;;26.45;22.20;;;;;;;;;;5053675;28;20067;-70
2020/12/07 02:50:23;;;;;;;28.63;23.38;;;;;;;;;;5057674;28;20104;-70
2020/12/07 02:52:48;;;;;;;25.53;21.60;;;;;;;;;;5057950;28;20036;-67
2020/12/07 02:55:13;;;;;;;29.83;23.37;;;;;;;;;;5055507;28;20279;-68
2020/12/07 02:57:38;;;;;;;27.88;22.30;;;;;;;;;;5052100;28;20251;-69
2020/12/07 03:00:05;;;;;;;27.02;22.70;;;;;;;;;;5052298;28;20021;-69
2020/12/07 03:02:31;;;;;;;25.33;21.38;;;;;;;;;;5051817;28;20043;-70
2020/12/07 03:04:56;;;;;;;25.52;22.23;;;;;;;;;;5052295;28;20039;-68
2020/12/07 03:07:21;;;;;;;31.13;23.40;;;;;;;;;;5052074;28;20343;-67
2020/12/07 03:09:46;;;;;;;30.17;24.57;;;;;;;;;;5052139;28;20263;-71
2020/12/07 03:12:12;;;;;;;29.95;24.35;;;;;;;;;;5056092;28;20727;-68
2020/12/07 03:14:37;;;;;;;28.15;23.95;;;;;;;;;;5060519;28;20466;-70
2020/12/07 03:17:03;;;;;;;29.63;25.38;;;;;;;;;;5053468;28;20257;-69
2020/12/07 03:19:28;;;;;;;32.83;25.00;;;;;;;;;;5052161;28;20044;-70
2020/12/07 03:21:53;;;;;;;33.50;24.95;;;;;;;;;;5051880;28;20029;-68
2020/12/07 03:24:18;;;;;;;28.77;24.30;;;;;;;;;;5051654;28;20045;-69
2020/12/07 03:26:43;;;;;;;30.73;25.00;;;;;;;;;;5052792;28;20024;-66
2020/12/07 03:29:09;;;;;;;29.98;23.83;;;;;;;;;;5054441;28;20335;-70
2020/12/07 03:31:36;;;;;;;27.75;23.00;;;;;;;;;;5052093;28;20029;-69
2020/12/07 03:34:01;;;;;;;26.50;23.05;;;;;;;;;;5051848;28;20128;-70
2020/12/07 03:36:27;;;;;;;28.88;22.27;;;;;;;;;;5052552;28;20497;-68
2020/12/07 03:38:52;;;;;;;26.42;22.63;;;;;;;;;;5052033;28;20017;-72
2020/12/07 03:41:17;;;;;;;25.60;21.30;;;;;;;;;;5051607;28;20371;-70
2020/12/07 03:43:43;;;;;;;24.90;21.17;;;;;;;;;;5051581;28;20036;-72
2020/12/07 03:46:08;;;;;;;26.35;21.30;;;;;;;;;;5051657;28;20368;-71
2020/12/07 03:48:33;;;;;;;22.67;19.73;;;;;;;;;;5051717;28;20025;-70
2020/12/07 03:50:58;;;;;;;24.43;21.20;;;;;;;;;;5051529;28;20287;-69
2020/12/07 03:53:23;;;;;;;21.48;19.10;;;;;;;;;;5051227;28;20660;-70
2020/12/07 03:55:49;;;;;;;21.30;18.58;;;;;;;;;;5054076;28;20025;-73
2020/12/07 03:58:14;;;;;;;22.83;18.70;;;;;;;;;;5060527;28;20033;-72
2020/12/07 04:00:39;;;;;;;22.17;19.57;;;;;;;;;;5060463;28;20249;-72
2020/12/07 04:03:07;;;;;;;21.33;18.67;;;;;;;;;;5054902;28;20263;-69
2020/12/07 04:05:37;;;;;;;20.67;18.42;;;;;;;;;;5055610;28;20049;-72
2020/12/07 04:08:03;;;;;;;21.17;18.42;;;;;;;;;;5055269;28;20480;-71
2020/12/07 04:10:28;;;;;;;19.77;17.65;;;;;;;;;;5055442;28;20049;-68
2020/12/07 04:12:53;;;;;;;20.03;16.60;;;;;;;;;;5054909;28;20162;-69
2020/12/07 04:15:18;;;;;;;19.23;17.20;;;;;;;;;;5055030;28;20252;-71
2020/12/07 04:17:43;;;;;;;17.92;16.13;;;;;;;;;;5055293;28;20029;-70
2020/12/07 04:20:09;;;;;;;17.33;15.52;;;;;;;;;;5055185;28;20023;-70
2020/12/07 04:22:34;;;;;;;20.90;17.23;;;;;;;;;;5054757;28;20021;-70
2020/12/07 04:24:59;;;;;;;19.10;17.02;;;;;;;;;;5055130;28;20282;-70
2020/12/07 04:27:24;;;;;;;17.67;15.85;;;;;;;;;;5055346;28;20029;-71
2020/12/07 04:29:49;;;;;;;17.77;15.63;;;;;;;;;;5054813;28;20405;-70
2020/12/07 04:32:15;;;;;;;16.83;14.98;;;;;;;;;;5054609;28;20028;-68
2020/12/07 04:34:40;;;;;;;16.83;15.10;;;;;;;;;;5055113;28;20421;-69
2020/12/07 04:37:05;;;;;;;16.13;14.40;;;;;;;;;;5054697;28;20458;-70
2020/12/07 04:39:30;;;;;;;15.85;14.00;;;;;;;;;;5053383;28;20254;-69
2020/12/07 04:41:57;;;;;;;17.77;15.98;;;;;;;;;;5054306;28;20020;-68
2020/12/07 04:44:22;;;;;;;16.30;14.52;;;;;;;;;;5055271;28;20093;-69
2020/12/07 04:46:47;;;;;;;15.10;13.38;;;;;;;;;;5054615;28;20477;-67
2020/12/07 04:49:14;;;;;;;15.13;13.10;;;;;;;;;;5054683;28;20029;-69
2020/12/07 04:51:39;;;;;;;15.30;13.70;;;;;;;;;;5054249;28;20371;-70
2020/12/07 04:54:06;;;;;;;15.85;13.23;;;;;;;;;;5054925;28;20074;-69
2020/12/07 04:56:32;;;;;;;15.32;13.43;;;;;;;;;;5054599;28;20040;-70
2020/12/07 04:58:57;;;;;;;13.73;12.32;;;;;;;;;;5054662;28;20024;-70
2020/12/07 05:01:22;;;;;;;14.23;12.77;;;;;;;;;;5054464;28;20021;-71
2020/12/07 05:03:47;;;;;;;13.83;12.20;;;;;;;;;;5055404;28;20033;-70
2020/12/07 05:06:16;;;;;;;14.00;12.60;;;;;;;;;;5053394;28;20366;-69
2020/12/07 05:08:41;;;;;;;13.55;12.25;;;;;;;;;;5054352;28;20424;-70
2020/12/07 05:11:06;;;;;;;13.98;12.68;;;;;;;;;;5052908;28;20021;-72
2020/12/07 05:13:40;;;;;;;13.50;12.10;;;;;;;;;;5054152;28;20009;-71
2020/12/07 05:16:05;;;;;;;13.35;12.05;;;;;;;;;;5054485;28;20092;-71
2020/12/07 05:18:34;;;;;;;12.98;11.57;;;;;;;;;;5054081;28;20388;-70
2020/12/07 05:21:00;;;;;;;13.48;12.15;;;;;;;;;;5054046;28;20013;-71
2020/12/07 05:23:25;;;;;;;13.10;11.70;;;;;;;;;;5053792;28;20378;-68
2020/12/07 05:25:50;;;;;;;14.68;12.95;;;;;;;;;;5054037;28;20173;-71
2020/12/07 05:28:27;;;;;;;13.32;11.95;;;;;;;;;;5054011;28;20378;-71
2020/12/07 05:30:52;;;;;;;12.60;11.30;;;;;;;;;;5053890;28;20013;-71
2020/12/07 05:33:18;;;;;;;12.38;11.07;;;;;;;;;;5053953;28;20340;-65
2020/12/07 05:35:53;;;;;;;13.90;12.48;;;;;;;;;;5053762;28;20489;-67
2020/12/07 05:38:18;;;;;;;12.45;11.15;;;;;;;;;;5053997;28;20032;-69
2020/12/07 05:40:43;;;;;;;13.30;11.98;;;;;;;;;;5053797;28;20021;-69
2020/12/07 05:43:09;;;;;;;12.70;11.40;;;;;;;;;;5053542;28;20021;-67
2020/12/07 05:45:34;;;;;;;13.50;11.25;;;;;;;;;;5053347;28;20097;-67
2020/12/07 05:47:59;;;;;;;13.55;12.10;;;;;;;;;;5053604;28;20091;-70
2020/12/07 05:50:26;;;;;;;12.63;11.30;;;;;;;;;;5053513;28;20097;-70
2020/12/07 05:52:52;;;;;;;14.63;13.10;;;;;;;;;;5051675;28;20073;-70
2020/12/07 05:55:18;;;;;;;13.15;11.70;;;;;;;;;;5053286;28;20359;-73
2020/12/07 05:57:47;;;;;;;14.10;12.60;;;;;;;;;;5053292;28;20013;-70
2020/12/07 06:00:17;;;;;;;12.40;11.10;;;;;;;;;;5053073;28;20017;-71
2020/12/07 06:02:42;;;;;;;11.85;10.68;;;;;;;;;;5053007;28;20124;-70
2020/12/07 06:05:11;;;;;;;11.57;10.40;;;;;;;;;;5053045;28;20057;-71
2020/12/07 06:07:36;;;;;;;12.45;11.15;;;;;;;;;;5053220;28;20025;-70
2020/12/07 06:10:02;;;;;;;12.32;11.23;;;;;;;;;;5053395;28;20067;-71
2020/12/07 06:12:30;;;;;;;13.95;12.38;;;;;;;;;;5052895;28;20017;-70
2020/12/07 06:14:57;;;;;;;12.70;10.50;;;;;;;;;;5053361;28;20076;-71
2020/12/07 06:17:29;;;;;;;11.27;10.15;;;;;;;;;;5052971;28;20028;-70
2020/12/07 06:19:55;;;;;;;13.80;11.82;;;;;;;;;;5052187;28;20052;-69
2020/12/07 06:22:21;;;;;;;12.35;11.02;;;;;;;;;;5052419;28;20061;-69
2020/12/07 06:24:47;;;;;;;13.63;11.20;;;;;;;;;;5052837;28;20013;-69
2020/12/07 06:27:13;;;;;;;11.98;10.75;;;;;;;;;;5052562;28;20029;-69
2020/12/07 06:29:54;;;;;;;15.73;12.65;;;;;;;;;;5053002;28;20013;-69
2020/12/07 06:32:19;;;;;;;13.70;12.23;;;;;;;;;;5052233;28;20470;-69
2020/12/07 06:34:44;;;;;;;12.97;11.50;;;;;;;;;;5056667;28;20029;-69
2020/12/07 06:37:10;;;;;;;11.63;10.20;;;;;;;;;;5072768;28;20298;-68
2020/12/07 06:39:41;;;;;;;13.48;11.50;;;;;;;;;;5072292;28;20247;-68
2020/12/07 06:42:08;;;;;;;12.45;11.15;;;;;;;;;;5072036;28;20028;-71
2020/12/07 06:44:33;;;;;;;12.55;11.27;;;;;;;;;;5072162;28;20028;-72
2020/12/07 06:47:10;;;;;;;11.27;10.07;;;;;;;;;;5072362;28;20017;-71
2020/12/07 06:49:48;;;;;;;12.55;11.30;;;;;;;;;;5072341;28;20021;-69
2020/12/07 06:52:28;;;;;;;12.23;11.02;;;;;;;;;;5071811;28;20423;-68
2020/12/07 06:55:09;;;;;;;10.93;9.80;;;;;;;;;;5070208;28;20088;-69
2020/12/07 06:57:38;;;;;;;11.57;10.48;;;;;;;;;;5052227;28;20025;-68
2020/12/07 07:00:11;;;;;;;11.98;10.77;;;;;;;;;;5052318;28;20032;-70
2020/12/07 07:02:37;;;;;;;10.52;9.50;;;;;;;;;;5051606;28;20048;-70
2020/12/07 07:05:02;;;;;;;11.65;10.48;;;;;;;;;;5051817;28;20013;-69
2020/12/07 07:07:29;;;;;;;11.70;10.52;;;;;;;;;;5051970;28;20036;-70
2020/12/07 07:09:54;;;;;;;13.00;11.70;;;;;;;;;;5052045;28;20029;-68
2020/12/07 07:12:20;;;;;;;13.77;12.15;;;;;;;;;;5051537;28;20031;-70
2020/12/07 07:14:47;;;;;;;14.48;12.77;;;;;;;;;;5064988;28;20020;-69
2020/12/07 07:17:12;;;;;;;15.50;13.18;;;;;;;;;;5071599;28;20027;-68
2020/12/07 07:19:37;;;;;;;14.97;13.47;;;;;;;;;;5072042;28;20095;-65
2020/12/07 07:22:02;;;;;;;14.52;12.63;;;;;;;;;;5071610;28;20597;-72
2020/12/07 07:24:36;;;;;;;14.43;12.93;;;;;;;;;;5072019;28;20028;-70
2020/12/07 07:27:55;;;;;;;13.10;11.77;;;;;;;;;;5072044;28;20104;-70
2020/12/07 07:29:49;;;;;;;14.10;12.63;;;;;;;;;;5072804;28;20430;-65
2020/12/07 07:32:15;;;;;;;13.00;11.37;;;;;;;;;;5075792;28;20056;-71
2020/12/07 07:34:45;;;;;;;13.40;12.00;;;;;;;;;;5079516;28;20263;-69
2020/12/07 07:37:11;;;;;;;14.02;11.93;;;;;;;;;;5064355;28;20060;-71
2020/12/07 07:39:36;;;;;;;17.55;12.27;;;;;;;;;;5061697;28;20041;-72
2020/12/07 07:42:11;;;;;;;12.10;10.82;;;;;;;;;;5075232;28;20029;-71
2020/12/07 07:44:37;;;;;;;11.23;10.20;;;;;;;;;;5075512;28;20025;-68
2020/12/07 07:47:06;;;;;;;12.48;10.18;;;;;;;;;;5075188;28;20032;-67
2020/12/07 07:49:49;;;;;;;12.57;10.77;;;;;;;;;;5075608;28;20359;-70
2020/12/07 08:17:46;;;;;;;8.32;7.53;;;;;;;;;;5051414;28;20035;-71
2020/12/07 08:20:14;;;;;;;9.27;8.20;;;;;;;;;;5067169;28;20550;-70
2020/12/07 08:22:39;;;;;;;9.40;8.50;;;;;;;;;;5074407;28;20054;-67
2020/12/07 08:25:06;;;;;;;9.47;7.73;;;;;;;;;;5074626;28;20028;-68
2020/12/07 08:27:31;;;;;;;8.88;7.25;;;;;;;;;;5074820;28;20624;-67
2020/12/07 08:30:01;;;;;;;8.13;7.32;;;;;;;;;;5075207;28;20028;-69
2020/12/07 08:32:26;;;;;;;9.80;7.90;;;;;;;;;;5074698;28;20067;-69
2020/12/07 08:34:51;;;;;;;8.00;6.78;;;;;;;;;;5074601;28;20064;-70
2020/12/07 08:37:17;;;;;;;9.10;7.50;;;;;;;;;;5074373;28;20128;-68
2020/12/07 08:39:42;;;;;;;8.70;7.43;;;;;;;;;;5074435;28;20243;-68
2020/12/07 08:42:07;;;;;;;10.93;7.78;;;;;;;;;;5073268;28;20405;-69
2020/12/07 08:44:32;;;;;;;7.85;7.05;;;;;;;;;;5084026;28;20039;-71
2020/12/07 08:46:58;;;;;;;8.77;7.63;;;;;;;;;;5094744;28;20016;-67
2020/12/07 08:49:25;;;;;;;8.70;7.37;;;;;;;;;;5094746;28;20109;-70
2020/12/07 08:51:52;;;;;;;7.07;6.38;;;;;;;;;;5094311;28;20376;-71
2020/12/07 08:54:17;;;;;;;6.93;6.10;;;;;;;;;;5094417;28;20019;-72
2020/12/07 08:56:42;;;;;;;7.60;5.47;;;;;;;;;;5094207;28;20023;-72
2020/12/07 08:59:07;;;;;;;5.73;5.23;;;;;;;;;;5094360;28;20262;-72
2020/12/07 09:01:33;;;;;;;6.55;5.32;;;;;;;;;;5094527;28;20262;-71
2020/12/07 09:03:58;;;;;;;4.88;4.38;;;;;;;;;;5094712;28;20020;-71
2020/12/07 09:06:23;;;;;;;6.68;4.38;;;;;;;;;;5094268;28;20020;-71
2020/12/07 09:08:48;;;;;;;5.25;4.75;;;;;;;;;;5094742;28;20096;-71
2020/12/07 09:11:15;;;;;;;4.60;4.18;;;;;;;;;;5094595;28;20016;-72
2020/12/07 09:13:40;;;;;;;4.88;4.43;;;;;;;;;;5094867;28;20062;-72
2020/12/07 09:16:06;;;;;;;5.88;5.28;;;;;;;;;;5094884;28;20020;-72
2020/12/07 09:18:31;;;;;;;7.07;4.70;;;;;;;;;;5094659;28;20026;-70
2020/12/07 09:20:56;;;;;;;4.90;4.40;;;;;;;;;;5094558;28;20106;-71
2020/12/07 09:23:22;;;;;;;4.40;4.00;;;;;;;;;;5094390;28;20338;-70
2020/12/07 09:25:47;;;;;;;5.15;4.65;;;;;;;;;;5094571;28;20269;-69
2020/12/07 09:28:13;;;;;;;6.03;4.40;;;;;;;;;;5095095;28;20012;-69
2020/12/07 09:30:38;;;;;;;6.80;4.78;;;;;;;;;;5095108;28;20043;-69
2020/12/07 09:33:03;;;;;;;4.75;4.30;;;;;;;;;;5094555;28;20038;-68
2020/12/07 09:35:28;;;;;;;5.47;4.97;;;;;;;;;;5094589;28;20326;-69
2020/12/07 09:37:53;;;;;;;5.97;5.00;;;;;;;;;;5093993;28;20273;-69
2020/12/07 09:40:19;;;;;;;4.87;4.47;;;;;;;;;;5094348;28;20247;-71
2020/12/07 09:42:44;;;;;;;5.20;4.70;;;;;;;;;;5098117;28;20669;-71
2020/12/07 09:45:09;;;;;;;5.30;4.78;;;;;;;;;;5098094;28;20020;-71
2020/12/07 09:47:35;;;;;;;6.80;4.97;;;;;;;;;;5097458;28;20099;-70
2020/12/07 09:50:09;;;;;;;8.10;5.28;;;;;;;;;;5094675;28;20031;-69
2020/12/07 09:52:35;;;;;;;5.90;5.30;;;;;;;;;;5093692;28;20016;-69
2020/12/07 09:55:00;;;;;;;6.30;5.07;;;;;;;;;;5093814;28;20450;-71
2020/12/07 09:57:25;;;;;;;5.80;5.20;;;;;;;;;;5093912;28;20071;-71
2020/12/07 09:59:52;;;;;;;6.80;5.40;;;;;;;;;;5093843;28;20170;-68
2020/12/07 10:02:31;;;;;;;7.53;5.43;;;;;;;;;;5095279;28;20020;-70
2020/12/07 10:04:56;;;;;;;7.32;5.00;;;;;;;;;;5095572;28;20016;-69
2020/12/07 10:07:22;;;;;;;8.13;6.40;;;;;;;;;;5093321;28;20503;-67
2020/12/07 10:09:47;;;;;;;5.53;4.72;;;;;;;;;;5093136;28;20350;-68
2020/12/07 10:12:12;;;;;;;5.38;4.68;;;;;;;;;;5092864;28;20127;-69
2020/12/07 10:14:37;;;;;;;7.57;5.15;;;;;;;;;;5093061;28;20032;-68
2020/12/07 10:17:03;;;;;;;6.18;4.70;;;;;;;;;;5093044;28;20016;-73
2020/12/07 10:19:28;;;;;;;5.95;4.80;;;;;;;;;;5093435;28;20008;-71
2020/12/07 10:21:53;;;;;;;5.93;5.15;;;;;;;;;;5091368;28;20016;-70
2020/12/07 10:24:19;;;;;;;6.45;5.75;;;;;;;;;;5093127;28;20026;-73
2020/12/07 10:26:44;;;;;;;6.75;6.03;;;;;;;;;;5092908;28;20059;-69
2020/12/07 10:29:09;;;;;;;8.32;5.93;;;;;;;;;;5092870;28;20103;-74
2020/12/07 10:31:34;;;;;;;6.05;5.45;;;;;;;;;;5092579;28;20069;-73
2020/12/07 10:33:59;;;;;;;7.17;4.80;;;;;;;;;;5092872;28;20065;-72
2020/12/07 10:36:25;;;;;;;6.20;5.60;;;;;;;;;;5092788;28;20592;-72
2020/12/07 10:38:50;;;;;;;7.57;5.80;;;;;;;;;;5086327;28;20473;-73
2020/12/07 10:41:16;;;;;;;7.82;6.20;;;;;;;;;;5070588;28;20096;-70
2020/12/07 10:43:42;;;;;;;7.85;5.95;;;;;;;;;;5071126;28;20063;-73
2020/12/07 10:46:07;;;;;;;6.88;5.85;;;;;;;;;;5078361;28;20029;-73
2020/12/07 10:48:33;;;;;;;6.82;6.13;;;;;;;;;;5088414;28;20028;-73
2020/12/07 10:50:58;;;;;;;6.82;6.13;;;;;;;;;;5078589;28;20026;-73
2020/12/07 10:53:23;;;;;;;6.90;6.23;;;;;;;;;;5081774;28;20050;-72
2020/12/07 10:55:48;;;;;;;7.53;6.82;;;;;;;;;;5085380;28;20281;-70
2020/12/07 10:58:14;;;;;;;7.13;6.07;;;;;;;;;;5074788;28;20016;-70
2020/12/07 11:00:39;;;;;;;8.02;6.88;;;;;;;;;;5087634;28;20378;-70
2020/12/07 11:03:05;;;;;;;9.27;7.20;;;;;;;;;;5078979;28;20024;-71
2020/12/07 11:05:30;;;;;;;8.40;7.30;;;;;;;;;;5079652;28;20020;-69
2020/12/07 11:07:56;;;;;;;7.13;6.28;;;;;;;;;;5071339;28;20397;-73
2020/12/07 11:10:21;;;;;;;7.30;6.60;;;;;;;;;;5071612;28;20060;-69
2020/12/07 11:12:52;;;;;;;8.83;6.97;;;;;;;;;;5062879;28;20032;-70
2020/12/07 11:15:18;;;;;;;7.68;6.80;;;;;;;;;;5085084;28;20250;-71
2020/12/07 11:17:43;;;;;;;7.20;6.57;;;;;;;;;;5080083;28;20039;-70
2020/12/07 11:20:08;;;;;;;7.97;7.17;;;;;;;;;;5078020;28;20036;-70
2020/12/07 11:22:34;;;;;;;7.83;7.03;;;;;;;;;;5087609;28;20251;-71
2020/12/07 11:24:59;;;;;;;8.70;6.93;;;;;;;;;;5075398;28;20250;-71
2020/12/07 11:27:24;;;;;;;8.90;6.50;;;;;;;;;;5067758;28;20033;-71
2020/12/07 11:29:49;;;;;;;7.47;6.60;;;;;;;;;;5075651;28;20024;-72
2020/12/07 11:32:14;;;;;;;6.82;5.80;;;;;;;;;;5068716;28;20806;-70
2020/12/07 11:34:40;;;;;;;8.82;6.85;;;;;;;;;;5072465;28;20020;-70
2020/12/07 11:37:05;;;;;;;12.47;7.13;;;;;;;;;;5080946;28;20400;-71
2020/12/07 11:39:46;;;;;;;7.55;6.78;;;;;;;;;;5067409;28;20250;-70
2020/12/07 11:42:24;;;;;;;8.27;6.85;;;;;;;;;;5077388;28;20036;-71
2020/12/07 11:44:49;;;;;;;7.82;6.95;;;;;;;;;;5087601;28;20043;-69
2020/12/07 11:47:15;;;;;;;7.03;6.32;;;;;;;;;;5085170;28;20028;-70
2020/12/07 11:49:41;;;;;;;9.10;7.15;;;;;;;;;;5081186;28;20042;-71
2020/12/07 11:52:07;;;;;;;8.95;6.60;;;;;;;;;;5078085;28;20031;-72
2020/12/07 11:54:32;;;;;;;7.78;6.63;;;;;;;;;;5087759;28;20020;-72
2020/12/07 11:57:02;;;;;;;7.05;6.35;;;;;;;;;;5074745;28;20016;-70
2020/12/07 11:59:27;;;;;;;7.10;6.30;;;;;;;;;;5066245;28;20049;-69
2020/12/07 12:01:52;;;;;;;7.97;6.23;;;;;;;;;;5063423;28;20125;-68
2020/12/07 12:04:17;;;;;;;8.90;6.60;;;;;;;;;;5074848;28;20273;-68
2020/12/07 12:06:43;;;;;;;6.30;5.70;;;;;;;;;;5079399;28;20262;-70
2020/12/07 12:09:12;;;;;;;8.43;5.93;;;;;;;;;;5085685;28;20043;-68
2020/12/07 12:11:37;;;;;;;8.90;6.47;;;;;;;;;;5070522;28;20024;-71
2020/12/07 12:14:04;;;;;;;7.03;6.22;;;;;;;;;;5070771;28;20093;-69
2020/12/07 12:16:29;;;;;;;7.00;6.30;;;;;;;;;;5073435;28;20096;-69
2020/12/07 12:18:54;;;;;;;6.68;5.50;;;;;;;;;;5074532;28;20773;-69
2020/12/07 12:21:20;;;;;;;7.35;6.57;;;;;;;;;;5074709;28;20066;-70
2020/12/07 12:23:46;;;;;;;6.10;5.47;;;;;;;;;;5074946;28;20016;-69
2020/12/07 12:26:12;;;;;;;7.15;6.43;;;;;;;;;;5074842;28;20466;-68
2020/12/07 12:28:37;;;;;;;7.43;5.47;;;;;;;;;;5074564;28;20021;-71
2020/12/07 12:31:03;;;;;;;6.47;5.60;;;;;;;;;;5074703;28;20123;-68
2020/12/07 12:33:28;;;;;;;6.70;5.75;;;;;;;;;;5074526;28;20590;-70
2020/12/07 12:35:53;;;;;;;7.20;6.50;;;;;;;;;;5074489;28;20028;-68
2020/12/07 12:38:18;;;;;;;7.80;6.40;;;;;;;;;;5074497;28;20332;-73
2020/12/07 12:40:43;;;;;;;9.00;7.45;;;;;;;;;;5074511;28;20724;-72
2020/12/07 12:43:08;;;;;;;9.67;6.70;;;;;;;;;;5074089;28;20042;-70
2020/12/07 12:45:34;;;;;;;7.07;6.38;;;;;;;;;;5066428;28;20267;-69
2020/12/07 12:47:59;;;;;;;7.22;5.93;;;;;;;;;;5054549;28;20039;-72
2020/12/07 12:50:24;;;;;;;6.53;5.82;;;;;;;;;;5054871;28;20032;-69
2020/12/07 12:52:51;;;;;;;7.00;5.83;;;;;;;;;;5057038;28;20038;-70
2020/12/07 12:55:16;;;;;;;6.72;5.53;;;;;;;;;;5074296;28;20263;-69
2020/12/07 12:57:41;;;;;;;7.20;6.25;;;;;;;;;;5074163;28;20016;-70
2020/12/07 13:00:06;;;;;;;7.80;6.03;;;;;;;;;;5073956;28;20013;-72
2020/12/07 13:02:32;;;;;;;6.70;6.10;;;;;;;;;;5073174;28;20020;-68
2020/12/07 13:04:57;;;;;;;6.85;5.93;;;;;;;;;;5083562;28;20374;-67
2020/12/07 13:07:22;;;;;;;6.80;6.10;;;;;;;;;;5086650;28;20032;-75
2020/12/07 13:09:47;;;;;;;9.82;6.25;;;;;;;;;;5077682;28;20254;-72
2020/12/07 13:12:12;;;;;;;7.78;6.57;;;;;;;;;;5074337;28;20028;-68
2020/12/07 13:14:37;;;;;;;6.80;6.10;;;;;;;;;;5066969;28;20012;-71
2020/12/07 13:17:06;;;;;;;7.13;6.53;;;;;;;;;;5059738;28;20091;-71
2020/12/07 13:19:32;;;;;;;6.55;5.80;;;;;;;;;;5053560;28;20747;-70
2020/12/07 13:22:11;;;;;;;9.27;6.43;;;;;;;;;;5054149;28;20025;-73
2020/12/07 13:24:46;;;;;;;8.00;5.57;;;;;;;;;;5063066;28;20115;-68
2020/12/07 13:29:54;;;;;;;6.95;5.57;;;;;;;;;;5094339;28;20039;-68
2020/12/07 13:32:19;;;;;;;5.70;5.20;;;;;;;;;;5087424;28;20016;-71
2020/12/07 13:34:46;;;;;;;7.10;5.37;;;;;;;;;;5077530;28;20506;-69
2020/12/07 13:37:11;;;;;;;6.00;4.95;;;;;;;;;;5075706;28;20247;-71
2020/12/07 13:39:37;;;;;;;5.43;4.93;;;;;;;;;;5093358;28;20081;-70
2020/12/07 13:42:02;;;;;;;6.43;5.20;;;;;;;;;;5083236;28;20016;-68
2020/12/07 13:44:27;;;;;;;5.68;4.95;;;;;;;;;;5087103;28;20023;-70
2020/12/07 13:46:56;;;;;;;5.73;5.13;;;;;;;;;;5079730;28;20103;-67
2020/12/07 13:49:22;;;;;;;5.90;5.32;;;;;;;;;;5090508;28;20769;-73
2020/12/07 13:51:47;;;;;;;6.78;5.50;;;;;;;;;;5080923;28;20103;-72
2020/12/07 13:54:12;;;;;;;8.00;5.53;;;;;;;;;;5082837;28;20384;-71
2020/12/07 13:56:41;;;;;;;6.23;5.40;;;;;;;;;;5073599;28;20286;-74
2020/12/07 13:59:06;;;;;;;5.80;5.18;;;;;;;;;;5073519;28;20376;-73
2020/12/07 14:01:31;;;;;;;6.22;5.45;;;;;;;;;;5073414;28;20024;-75
2020/12/07 14:04:01;;;;;;;7.90;5.90;;;;;;;;;;5073510;28;20028;-76
2020/12/07 14:06:27;;;;;;;6.47;5.68;;;;;;;;;;5073317;28;20099;-80
2020/12/07 14:08:52;;;;;;;7.45;6.05;;;;;;;;;;5060698;28;20481;-82
2020/12/07 14:11:17;;;;;;;6.03;5.40;;;;;;;;;;5057611;28;20090;-76
2020/12/07 14:13:43;;;;;;;6.25;5.65;;;;;;;;;;5058337;28;20343;-79
2020/12/07 14:16:08;;;;;;;6.00;5.30;;;;;;;;;;5054321;28;20036;-78
2020/12/07 14:18:37;;;;;;;5.70;5.10;;;;;;;;;;5053407;28;20255;-76
2020/12/07 14:21:11;;;;;;;5.53;4.97;;;;;;;;;;5052417;28;20748;-74
2020/12/07 14:23:48;;;;;;;7.15;5.28;;;;;;;;;;5053127;28;20432;-78
2020/12/07 14:26:26;;;;;;;6.03;5.18;;;;;;;;;;5062881;28;20021;-78
2020/12/07 14:35:07;;;;;;;5.90;5.30;;;;;;;;;;5072976;28;20024;-78
2020/12/07 14:40:07;;;;;;;7.47;5.70;;;;;;;;;;5073248;28;20094;-78
2020/12/07 14:42:33;;;;;;;7.65;5.13;;;;;;;;;;5073420;28;20093;-76
2020/12/07 14:44:59;;;;;;;5.28;4.78;;;;;;;;;;5073548;28;20416;-75
2020/12/07 14:47:26;;;;;;;5.25;4.72;;;;;;;;;;5077307;28;20017;-79
2020/12/07 14:49:56;;;;;;;4.65;4.22;;;;;;;;;;5077343;28;20039;-76
2020/12/07 14:52:24;;;;;;;6.68;5.10;;;;;;;;;;5072563;28;20024;-76
2020/12/07 14:55:02;;;;;;;7.93;4.75;;;;;;;;;;5073324;28;20016;-79
2020/12/07 15:01:00;;;;;;;6.20;5.00;;;;;;;;;;5073769;28;20596;-76
2020/12/07 15:05:34;;;;;;;6.88;5.03;;;;;;;;;;5073060;28;20020;-76